Goodfellow Terrace, Missouri
Current Conditions -  °F | °C
As of 9:51 AM on Wednesday 22 Oct 2014 (Local Time) from KSTL Reporting Station
Clear Clear  
Wind Chill: 51°   Ceiling: Unl
Heat Index: 51°   Visibility: 10mi
Dew Point: 42°   Wind: 9mph
Humidity: 71%   Direction: 110°ESE
Pressure: 30.33"   Gusts: NA
Location:  38.694°N, 90.256°W
Report Text: KSTL 221451Z 11008KT 10SM CLR 11/06 A3033 RMK AO2 SLP272 T01060056 53011
Loading
Personal Weather Stations






























Interactive Weather Map
Tropical Storm Tracking
New forecast layout! Learn more

10-Day Weather Forecast

Advertisements
Track Severe Weather on mobile